createdAt,value
2017-10-13T00:00:27.567Z,13.37
2017-10-13T00:02:55.009Z,14.50
2017-10-13T00:05:23.202Z,16.20
2017-10-13T00:07:50.647Z,18.93
2017-10-13T00:10:19.268Z,11.23
2017-10-13T00:12:46.719Z,14.10
2017-10-13T00:15:14.156Z,13.50
2017-10-13T00:17:42.051Z,13.70
2017-10-13T00:20:09.492Z,18.80
2017-10-13T00:22:36.938Z,17.07
2017-10-13T00:25:04.825Z,13.37
2017-10-13T00:27:32.271Z,14.43
2017-10-13T00:29:59.711Z,12.70
2017-10-13T00:32:27.923Z,16.63
2017-10-13T00:34:55.620Z,13.23
2017-10-13T00:37:23.058Z,10.87
2017-10-13T00:39:50.708Z,14.23
2017-10-13T00:42:18.149Z,15.20
2017-10-13T00:44:45.591Z,21.07
2017-10-13T00:47:13.035Z,17.80
2017-10-13T00:49:41.247Z,17.43
2017-10-13T00:52:10.858Z,8.90
2017-10-13T00:54:38.809Z,8.70
2017-10-13T00:57:06.244Z,10.90
2017-10-13T00:59:34.722Z,14.77
2017-10-13T01:02:02.918Z,18.77
2017-10-13T01:04:30.355Z,11.77
2017-10-13T01:06:58.827Z,16.90
2017-10-13T01:09:26.815Z,22.83
2017-10-13T01:11:55.547Z,17.13
2017-10-13T01:14:23.000Z,15.57
2017-10-13T01:16:50.814Z,18.00
2017-10-13T01:19:19.742Z,15.27
2017-10-13T01:21:47.170Z,15.10
2017-10-13T01:24:15.904Z,14.10
2017-10-13T01:26:43.341Z,17.27
2017-10-13T01:29:10.779Z,16.40
2017-10-13T01:31:38.212Z,14.43
2017-10-13T01:34:05.650Z,16.20
2017-10-13T01:36:33.090Z,13.87
2017-10-13T01:39:00.531Z,17.13
2017-10-13T01:41:27.966Z,14.87
2017-10-13T01:43:55.398Z,12.00
2017-10-13T01:46:26.775Z,11.53
2017-10-13T01:48:54.203Z,15.23
2017-10-13T01:51:22.687Z,12.17
2017-10-13T01:53:50.102Z,16.43
2017-10-13T01:56:17.542Z,8.83
2017-10-13T01:58:44.982Z,10.83
2017-10-13T02:01:15.043Z,14.73
2017-10-13T02:03:42.479Z,13.40
2017-10-13T02:06:09.919Z,14.37
2017-10-13T02:08:37.354Z,22.80
2017-10-13T02:11:05.815Z,19.87
2017-10-13T02:13:33.226Z,14.73
2017-10-13T02:16:00.666Z,18.23
2017-10-13T02:18:28.522Z,24.10
2017-10-13T02:20:57.907Z,16.10
2017-10-13T02:23:25.774Z,11.83
2017-10-13T02:25:53.986Z,15.00
2017-10-13T02:28:22.231Z,12.77
2017-10-13T02:30:50.444Z,20.97
2017-10-13T02:33:18.297Z,17.43
2017-10-13T02:35:45.742Z,20.60
2017-10-13T02:38:15.003Z,23.17
2017-10-13T02:40:42.451Z,23.27
2017-10-13T02:43:10.655Z,19.57
2017-10-13T02:45:39.501Z,20.47
2017-10-13T02:48:06.930Z,18.47
2017-10-13T02:50:34.387Z,24.70
2017-10-13T02:53:01.837Z,24.40
2017-10-13T02:55:29.860Z,22.10
2017-10-13T02:57:57.338Z,23.03
2017-10-13T03:00:24.754Z,20.40
2017-10-13T03:02:52.202Z,32.30
2017-10-13T03:05:20.069Z,20.03
2017-10-13T03:07:47.694Z,17.27
2017-10-13T03:10:16.703Z,23.10
2017-10-13T03:12:44.909Z,28.90
2017-10-13T03:15:12.351Z,30.47
2017-10-13T03:17:39.787Z,31.67
2017-10-13T03:20:07.222Z,25.43
2017-10-13T03:22:34.658Z,26.23
2017-10-13T03:25:02.107Z,30.37
2017-10-13T03:27:29.535Z,37.27
2017-10-13T03:29:57.390Z,44.00
2017-10-13T03:32:24.837Z,27.17
2017-10-13T03:34:53.042Z,31.40
2017-10-13T03:37:20.474Z,29.50
2017-10-13T03:39:48.434Z,16.73
2017-10-13T03:42:16.638Z,27.60
2017-10-13T03:44:44.063Z,23.03
2017-10-13T03:47:12.579Z,27.97
2017-10-13T03:52:35.111Z,22.33
2017-10-13T03:55:03.314Z,16.80
2017-10-13T03:57:30.747Z,15.87
2017-10-13T03:59:59.032Z,21.20
2017-10-13T04:02:26.764Z,16.10
2017-10-13T04:04:54.712Z,18.07
2017-10-13T04:07:22.142Z,16.77
2017-10-13T04:09:49.578Z,15.40
2017-10-13T04:12:17.011Z,14.53
2017-10-13T04:14:45.215Z,10.87
2017-10-13T04:17:13.064Z,19.97
2017-10-13T04:19:41.265Z,17.10
2017-10-13T04:22:09.018Z,30.40
2017-10-13T04:24:36.567Z,53.47
2017-10-13T04:27:04.294Z,34.63
2017-10-13T04:29:31.727Z,47.43
2017-10-13T04:31:59.591Z,31.50
2017-10-13T04:34:27.260Z,51.00
2017-10-13T04:36:55.607Z,95.63
2017-10-13T04:39:23.802Z,63.70
2017-10-13T04:41:53.117Z,38.67
2017-10-13T04:44:20.543Z,23.77
2017-10-13T04:46:47.967Z,19.03
2017-10-13T04:49:16.178Z,14.43
2017-10-13T04:51:44.222Z,18.37
2017-10-13T04:54:12.962Z,32.43
2017-10-13T04:56:40.510Z,57.50
2017-10-13T04:59:07.958Z,62.07
2017-10-13T05:01:35.401Z,77.47
2017-10-13T05:04:02.838Z,56.17
2017-10-13T05:06:31.040Z,29.33
2017-10-13T05:08:58.483Z,30.47
2017-10-13T05:11:25.914Z,21.50
2017-10-13T05:13:54.106Z,19.23
2017-10-13T05:16:22.315Z,13.10
2017-10-13T05:18:49.735Z,14.17
2017-10-13T05:21:17.939Z,15.67
2017-10-13T05:23:45.367Z,21.93
2017-10-13T05:26:13.580Z,16.23
2017-10-13T05:28:41.006Z,23.93
2017-10-13T05:31:08.447Z,19.37
2017-10-13T05:33:36.646Z,14.17
2017-10-13T05:36:04.084Z,11.63
2017-10-13T05:38:32.274Z,22.57
2017-10-13T05:40:59.714Z,38.63
2017-10-13T05:43:35.827Z,34.17
2017-10-13T05:46:20.591Z,36.43
2017-10-13T05:48:48.074Z,65.73
2017-10-13T05:51:23.089Z,25.93
2017-10-13T05:53:50.530Z,17.17
2017-10-13T05:56:17.967Z,18.50
2017-10-13T05:58:45.398Z,48.33
2017-10-13T06:01:13.603Z,25.57
2017-10-13T06:03:41.033Z,56.97
2017-10-13T06:06:09.236Z,56.33
2017-10-13T06:08:36.669Z,49.17
2017-10-13T06:11:05.402Z,43.70
2017-10-13T06:13:33.227Z,59.70
2017-10-13T06:16:01.410Z,113.77
2017-10-13T06:21:35.619Z,129.47
2017-10-13T06:24:03.823Z,173.77
2017-10-13T06:26:31.258Z,164.00
2017-10-13T06:28:59.476Z,120.73
2017-10-13T06:31:26.917Z,129.07
2017-10-13T06:33:54.414Z,91.47
2017-10-13T06:36:22.828Z,74.20
2017-10-13T06:38:55.200Z,94.57
2017-10-13T06:41:23.660Z,88.13
2017-10-13T06:43:54.648Z,49.20
2017-10-13T06:46:22.095Z,41.13
2017-10-13T06:48:49.534Z,33.50
2017-10-13T06:51:17.737Z,31.47
2017-10-13T06:53:45.185Z,20.70
2017-10-13T06:56:12.615Z,25.17
2017-10-13T06:58:41.350Z,20.33
2017-10-13T07:01:09.519Z,24.53
2017-10-13T07:03:36.973Z,25.87
2017-10-13T07:06:04.819Z,27.13
2017-10-13T07:08:32.266Z,29.30
2017-10-13T07:11:00.504Z,31.27
2017-10-13T07:16:21.551Z,22.17
2017-10-13T07:18:56.366Z,19.90
2017-10-13T07:21:24.779Z,25.77
2017-10-13T07:24:06.198Z,42.10
2017-10-13T07:26:34.347Z,22.60
2017-10-13T07:29:16.489Z,23.10
2017-10-13T07:31:44.651Z,25.33
2017-10-13T07:34:12.523Z,19.20
2017-10-13T07:36:39.961Z,30.30
2017-10-13T07:39:07.399Z,23.37
2017-10-13T07:41:37.442Z,22.57
2017-10-13T07:44:10.296Z,19.77
2017-10-13T07:46:38.915Z,26.13
2017-10-13T07:49:23.366Z,25.00
2017-10-13T07:51:50.806Z,14.90
2017-10-13T07:54:18.262Z,18.07
2017-10-13T07:56:46.106Z,25.87
2017-10-13T07:59:16.791Z,19.87
2017-10-13T08:01:44.239Z,53.67
2017-10-13T08:04:11.689Z,12.23
2017-10-13T08:06:58.834Z,14.03
2017-10-13T08:09:26.269Z,13.55
2017-10-13T08:11:54.121Z,15.53
2017-10-13T08:14:22.318Z,13.90
2017-10-13T08:16:49.749Z,14.40
2017-10-13T08:19:17.186Z,13.80
2017-10-13T08:22:04.884Z,9.93
2017-10-13T08:24:32.323Z,16.87
2017-10-13T08:26:59.758Z,12.50
2017-10-13T08:29:27.205Z,14.97
2017-10-13T08:31:54.638Z,15.63
2017-10-13T08:34:22.211Z,11.30
2017-10-13T08:36:50.405Z,16.37
2017-10-13T08:39:18.266Z,13.47
2017-10-13T08:41:45.706Z,15.93
2017-10-13T08:44:14.179Z,13.87
2017-10-13T08:46:41.626Z,14.00
2017-10-13T08:49:09.066Z,18.73
2017-10-13T08:51:36.519Z,14.83
2017-10-13T08:54:21.757Z,15.33
2017-10-13T08:56:49.211Z,17.37
2017-10-13T08:59:17.286Z,13.30
2017-10-13T09:01:44.730Z,14.87
2017-10-13T09:04:12.179Z,13.70
2017-10-13T09:06:40.388Z,14.27
2017-10-13T09:09:07.827Z,13.10
2017-10-13T09:11:35.283Z,17.47
2017-10-13T09:14:03.022Z,12.40
2017-10-13T09:16:30.462Z,18.70
2017-10-13T09:18:57.888Z,13.87
2017-10-13T09:21:25.334Z,14.97
2017-10-13T09:23:52.771Z,15.27
2017-10-13T09:26:20.214Z,12.80
2017-10-13T09:28:48.409Z,15.63
2017-10-13T09:31:22.295Z,12.43
2017-10-13T09:33:50.500Z,15.27
2017-10-13T09:36:17.966Z,16.40
2017-10-13T09:38:48.550Z,18.98
2017-10-13T09:41:16.758Z,19.67
2017-10-13T09:43:44.185Z,13.38
2017-10-13T09:46:14.132Z,17.42
2017-10-13T09:48:42.318Z,13.45
2017-10-13T09:51:09.768Z,14.27
2017-10-13T09:53:37.202Z,12.60
2017-10-13T09:56:05.406Z,16.30
2017-10-13T09:58:33.307Z,19.50
2017-10-13T10:01:00.766Z,14.85
2017-10-13T10:03:28.206Z,13.73
2017-10-13T10:05:56.402Z,14.38
2017-10-13T10:08:23.851Z,15.00
2017-10-13T10:10:51.310Z,16.27
2017-10-13T10:13:19.756Z,15.02
2017-10-13T10:15:47.190Z,15.15
2017-10-13T10:18:14.630Z,14.20
2017-10-13T10:20:42.831Z,11.80
2017-10-13T10:23:10.269Z,13.88
2017-10-13T10:25:38.478Z,15.20
2017-10-13T10:28:13.575Z,14.05
2017-10-13T10:30:41.785Z,13.65
2017-10-13T10:33:09.218Z,19.73
2017-10-13T10:35:37.419Z,13.02
2017-10-13T10:38:07.335Z,15.90
2017-10-13T10:40:35.370Z,11.73
2017-10-13T10:43:03.995Z,13.15
2017-10-13T10:45:31.997Z,12.37
2017-10-13T10:48:11.379Z,13.62
2017-10-13T10:50:39.245Z,10.45
2017-10-13T10:53:08.204Z,12.43
2017-10-13T10:55:36.420Z,11.30
2017-10-13T10:58:03.863Z,9.63
2017-10-13T11:00:42.870Z,11.02
2017-10-13T11:03:10.315Z,9.00
2017-10-13T11:05:37.750Z,9.43
2017-10-13T11:08:05.994Z,8.48
2017-10-13T11:10:34.171Z,9.38
2017-10-13T11:13:01.626Z,8.32
2017-10-13T11:15:29.096Z,10.05
2017-10-13T11:17:56.642Z,9.15
2017-10-13T11:20:25.634Z,7.68
2017-10-13T11:22:53.066Z,9.18
2017-10-13T11:25:21.281Z,8.02
2017-10-13T11:27:48.874Z,6.95
2017-10-13T11:30:19.795Z,6.65
2017-10-13T11:32:47.209Z,6.07
2017-10-13T11:35:15.410Z,7.57
2017-10-13T11:37:44.699Z,6.68
2017-10-13T11:40:12.703Z,8.88
2017-10-13T11:42:40.135Z,5.68
2017-10-13T11:45:07.582Z,9.93
2017-10-13T11:47:35.311Z,10.77
2017-10-13T11:50:02.746Z,5.85
2017-10-13T11:52:31.011Z,5.97
2017-10-13T11:54:58.464Z,8.15
2017-10-13T11:57:26.610Z,8.50
2017-10-13T11:59:54.047Z,6.53
2017-10-13T12:02:22.802Z,7.15
2017-10-13T12:04:50.244Z,7.03
2017-10-13T12:07:17.680Z,4.28
2017-10-13T12:09:45.839Z,10.35
2017-10-13T12:12:13.283Z,5.43
2017-10-13T12:14:41.506Z,5.40
2017-10-13T12:17:09.721Z,4.22
2017-10-13T12:19:37.922Z,7.18
2017-10-13T12:22:23.377Z,5.45
2017-10-13T12:24:51.627Z,5.93
2017-10-13T12:27:19.056Z,6.65
2017-10-13T12:29:46.486Z,4.20
2017-10-13T12:32:13.930Z,4.32
2017-10-13T12:34:54.842Z,5.80
2017-10-13T12:37:22.833Z,4.85
2017-10-13T12:39:50.281Z,7.15
2017-10-13T12:42:18.235Z,4.12
2017-10-13T12:44:46.438Z,6.78
2017-10-13T12:47:13.883Z,4.57
2017-10-13T12:49:41.729Z,5.97
2017-10-13T12:52:09.171Z,5.95
2017-10-13T12:54:36.854Z,3.45
2017-10-13T12:57:04.294Z,4.68
2017-10-13T12:59:32.230Z,5.37
2017-10-13T13:02:00.841Z,3.90
2017-10-13T13:04:28.274Z,4.12
2017-10-13T13:07:00.346Z,6.22
2017-10-13T13:09:28.550Z,5.22
2017-10-13T13:11:55.985Z,5.43
2017-10-13T13:14:24.179Z,8.63
2017-10-13T13:16:51.619Z,5.22
2017-10-13T13:19:20.390Z,5.65
2017-10-13T13:21:47.825Z,4.30
2017-10-13T13:24:15.642Z,6.15
2017-10-13T13:26:43.830Z,5.47
2017-10-13T13:29:11.263Z,4.30
2017-10-13T13:31:38.697Z,4.95
2017-10-13T13:34:06.126Z,7.37
2017-10-13T13:36:34.095Z,6.22
2017-10-13T13:39:01.531Z,4.05
2017-10-13T13:41:39.375Z,4.60
2017-10-13T13:44:07.226Z,4.15
2017-10-13T13:46:34.657Z,4.37
2017-10-13T13:49:02.094Z,6.18
2017-10-13T13:51:29.519Z,5.80
2017-10-13T13:54:05.242Z,8.18
2017-10-13T13:56:36.593Z,4.43
2017-10-13T13:59:04.561Z,4.57
2017-10-13T14:01:31.988Z,3.50
2017-10-13T14:03:59.430Z,2.80
2017-10-13T14:06:26.863Z,2.53
2017-10-13T14:08:55.076Z,2.78
2017-10-13T14:11:22.508Z,3.17
2017-10-13T14:13:50.710Z,3.60
2017-10-13T14:16:18.868Z,2.97
2017-10-13T14:18:46.307Z,5.03
2017-10-13T14:21:14.513Z,7.07
2017-10-13T14:23:41.958Z,4.05
2017-10-13T14:26:22.436Z,3.35
2017-10-13T14:28:49.881Z,8.07
2017-10-13T14:31:17.314Z,6.22
2017-10-13T14:33:45.523Z,7.15
2017-10-13T14:36:12.950Z,5.55
2017-10-13T14:38:41.154Z,7.53
2017-10-13T14:41:08.587Z,7.45
2017-10-13T14:43:36.060Z,7.03
2017-10-13T14:46:03.511Z,7.95
2017-10-13T14:48:31.521Z,10.13
2017-10-13T14:50:58.959Z,10.60
2017-10-13T14:53:26.399Z,10.60
2017-10-13T14:55:53.834Z,8.20
2017-10-13T14:58:22.037Z,8.27
2017-10-13T15:00:50.089Z,9.75
2017-10-13T15:03:19.196Z,7.15
2017-10-13T15:05:46.623Z,10.10
2017-10-13T15:08:17.127Z,4.95
2017-10-13T15:10:44.558Z,6.90
2017-10-13T15:13:11.992Z,8.75
2017-10-13T15:15:40.066Z,8.15
2017-10-13T15:18:07.622Z,8.50
2017-10-13T15:20:35.062Z,6.30
2017-10-13T15:23:03.255Z,7.65
2017-10-13T15:25:36.370Z,8.98
2017-10-13T15:31:10.513Z,6.07
2017-10-13T15:33:54.726Z,5.65
2017-10-13T15:39:28.458Z,6.87
2017-10-13T15:42:01.971Z,6.15
2017-10-13T15:44:30.536Z,4.80
2017-10-13T15:47:03.728Z,6.55
2017-10-13T15:49:52.263Z,4.37
2017-10-13T15:52:25.347Z,8.52
2017-10-13T15:54:54.062Z,5.78
2017-10-13T15:57:21.944Z,6.03
2017-10-13T15:59:49.894Z,7.15
2017-10-13T16:02:17.343Z,5.20
2017-10-13T16:04:44.780Z,11.57
2017-10-13T16:07:12.224Z,4.95
2017-10-13T16:09:39.666Z,5.37
2017-10-13T16:12:07.137Z,5.60
2017-10-13T16:14:35.474Z,5.55
2017-10-13T16:17:02.932Z,9.95
2017-10-13T16:19:30.396Z,9.40
2017-10-13T16:21:57.844Z,4.93
2017-10-13T16:24:25.271Z,5.97
2017-10-13T16:26:53.492Z,6.90
2017-10-13T16:29:20.939Z,6.80
2017-10-13T16:31:50.878Z,10.80
2017-10-13T16:34:18.317Z,6.20
2017-10-13T16:36:45.761Z,10.73
2017-10-13T16:39:13.197Z,6.43
2017-10-13T16:41:40.695Z,4.05
2017-10-13T16:44:08.121Z,5.53
2017-10-13T16:46:35.588Z,5.97
2017-10-13T16:49:03.031Z,7.27
2017-10-13T16:51:30.463Z,9.00
2017-10-13T16:53:58.684Z,5.72
2017-10-13T16:56:26.122Z,8.33
2017-10-13T16:58:53.571Z,7.35
2017-10-13T17:01:21.003Z,6.60
2017-10-13T17:03:49.222Z,7.67
2017-10-13T17:06:16.748Z,9.67
2017-10-13T17:08:44.966Z,7.97
2017-10-13T17:11:12.502Z,6.27
2017-10-13T17:13:40.619Z,11.77
2017-10-13T17:16:08.876Z,12.20
2017-10-13T17:18:37.555Z,8.10
2017-10-13T17:21:05.008Z,7.50
2017-10-13T17:23:32.463Z,10.13
2017-10-13T17:25:59.906Z,7.37
2017-10-13T17:28:27.981Z,5.73
2017-10-13T17:30:55.435Z,10.43
2017-10-13T17:33:22.886Z,5.97
2017-10-13T17:35:50.327Z,5.47
2017-10-13T17:38:19.128Z,7.63
2017-10-13T17:40:47.319Z,5.90
2017-10-13T17:43:14.762Z,8.23
2017-10-13T17:45:42.988Z,8.47
2017-10-13T17:48:11.240Z,8.53
2017-10-13T17:50:38.676Z,6.10
2017-10-13T17:53:06.179Z,6.00
2017-10-13T17:55:33.645Z,8.27
2017-10-13T17:58:04.111Z,6.53
2017-10-13T18:00:32.336Z,7.37
2017-10-13T18:02:59.804Z,9.80
2017-10-13T18:05:27.251Z,8.23
2017-10-13T18:07:55.267Z,6.53
2017-10-13T18:10:24.233Z,6.07
2017-10-13T18:12:51.671Z,7.10
2017-10-13T18:15:19.183Z,8.10
2017-10-13T18:17:46.628Z,8.57
2017-10-13T18:20:14.879Z,9.90
2017-10-13T18:22:42.310Z,8.80
2017-10-13T18:25:09.755Z,7.43
2017-10-13T18:27:37.194Z,6.17
2017-10-13T18:30:04.636Z,7.47
2017-10-13T18:32:32.840Z,8.57
2017-10-13T18:35:00.283Z,15.83
2017-10-13T18:37:27.735Z,12.83
2017-10-13T18:39:55.785Z,10.37
2017-10-13T18:42:23.640Z,11.50
2017-10-13T18:44:51.264Z,14.43
2017-10-13T18:47:18.716Z,12.37
2017-10-13T18:49:46.211Z,10.90
2017-10-13T18:52:13.669Z,10.70
2017-10-13T18:54:41.323Z,12.77
2017-10-13T18:57:09.401Z,8.73
2017-10-13T18:59:36.835Z,9.27
2017-10-13T19:02:04.713Z,11.67
2017-10-13T19:04:32.215Z,8.07
2017-10-13T19:07:02.548Z,14.40
2017-10-13T19:09:30.139Z,8.50
2017-10-13T19:11:58.023Z,17.80
2017-10-13T19:14:25.470Z,14.83
2017-10-13T19:16:52.936Z,11.23
2017-10-13T19:19:20.376Z,10.50
2017-10-13T19:21:48.289Z,7.93
2017-10-13T19:24:15.767Z,8.67
2017-10-13T19:26:43.218Z,8.80
2017-10-13T19:29:11.428Z,8.67
2017-10-13T19:31:38.883Z,12.33
2017-10-13T19:34:07.161Z,8.30
2017-10-13T19:36:34.621Z,7.17
2017-10-13T19:39:02.084Z,9.53
2017-10-13T19:41:29.540Z,11.33
2017-10-13T19:43:57.008Z,9.67
2017-10-13T19:46:24.479Z,11.07
2017-10-13T19:48:51.923Z,10.10
2017-10-13T19:51:19.369Z,11.23
2017-10-13T19:53:47.409Z,10.60
2017-10-13T19:56:15.450Z,12.67
2017-10-13T19:58:43.524Z,10.03
2017-10-13T20:01:12.736Z,6.83
2017-10-13T20:03:40.955Z,6.97
2017-10-13T20:06:08.402Z,7.67
2017-10-13T20:08:36.388Z,9.83
2017-10-13T20:11:03.830Z,6.70
2017-10-13T20:13:31.903Z,8.57
2017-10-13T20:16:00.055Z,10.70
2017-10-13T20:18:27.512Z,8.80
2017-10-13T20:20:54.946Z,5.73
2017-10-13T20:23:23.171Z,8.77
2017-10-13T20:25:50.616Z,13.83
2017-10-13T20:28:18.464Z,8.27
2017-10-13T20:30:45.906Z,9.63
2017-10-13T20:33:14.114Z,10.27
2017-10-13T20:35:41.559Z,10.80
2017-10-13T20:38:09.655Z,9.37
2017-10-13T20:40:37.108Z,11.10
2017-10-13T20:43:05.228Z,10.60
2017-10-13T20:45:33.275Z,9.00
2017-10-13T20:48:14.278Z,8.87
2017-10-13T20:50:42.496Z,6.30
2017-10-13T20:53:12.409Z,6.40
2017-10-13T20:55:40.396Z,9.80
2017-10-13T20:58:08.453Z,6.17
2017-10-13T21:00:35.884Z,7.27
2017-10-13T21:03:04.113Z,7.27
2017-10-13T21:05:31.551Z,9.60
2017-10-13T21:07:59.083Z,6.53
2017-10-13T21:10:29.022Z,11.90
2017-10-13T21:12:56.471Z,10.70
2017-10-13T21:15:24.018Z,9.60
2017-10-13T21:17:51.454Z,7.70
2017-10-13T21:20:19.676Z,12.73
2017-10-13T21:22:47.107Z,8.90
2017-10-13T21:25:15.141Z,8.67
2017-10-13T21:27:43.404Z,7.77
2017-10-13T21:30:10.864Z,6.47
2017-10-13T21:32:38.308Z,9.20
2017-10-13T21:35:06.198Z,14.83
2017-10-13T21:37:33.663Z,14.70
2017-10-13T21:40:01.111Z,10.40
2017-10-13T21:42:28.563Z,10.30
2017-10-13T21:44:56.548Z,12.87
2017-10-13T21:47:23.990Z,8.57
2017-10-13T21:49:51.446Z,7.27
2017-10-13T21:52:19.110Z,8.07
2017-10-13T21:54:46.567Z,6.87
2017-10-13T21:57:14.020Z,7.20
2017-10-13T21:59:42.073Z,8.00
2017-10-13T22:02:09.974Z,8.93
2017-10-13T22:04:37.826Z,7.10
2017-10-13T22:07:05.290Z,12.57
2017-10-13T22:09:33.280Z,13.00
2017-10-13T22:12:01.928Z,10.07
2017-10-13T22:14:29.363Z,10.40
2017-10-13T22:16:58.171Z,10.23
2017-10-13T22:19:25.661Z,5.83
2017-10-13T22:21:54.413Z,10.13
2017-10-13T22:24:21.859Z,8.47
2017-10-13T22:26:49.302Z,9.07
2017-10-13T22:29:16.746Z,10.93
2017-10-13T22:31:45.539Z,7.20
2017-10-13T22:34:12.975Z,6.83
2017-10-13T22:36:41.903Z,6.07
2017-10-13T22:39:09.336Z,8.80
2017-10-13T22:41:37.182Z,9.20
2017-10-13T22:44:05.807Z,6.03
2017-10-13T22:46:33.259Z,7.10
2017-10-13T22:49:00.694Z,6.73
2017-10-13T22:51:28.903Z,7.90
2017-10-13T22:53:57.957Z,7.93
2017-10-13T22:56:26.170Z,5.00
2017-10-13T22:58:54.050Z,5.10
2017-10-13T23:01:21.495Z,12.00
2017-10-13T23:03:48.948Z,7.50
2017-10-13T23:06:16.389Z,10.30
2017-10-13T23:08:43.843Z,9.43
2017-10-13T23:11:11.288Z,9.37
2017-10-13T23:13:40.122Z,7.00
2017-10-13T23:16:07.584Z,6.00
2017-10-13T23:18:35.442Z,5.47
2017-10-13T23:21:04.317Z,10.80
2017-10-13T23:23:31.994Z,7.17
2017-10-13T23:25:59.434Z,5.97
2017-10-13T23:28:26.887Z,4.17
2017-10-13T23:30:54.330Z,4.03
2017-10-13T23:33:22.540Z,7.03
2017-10-13T23:35:49.991Z,7.00
2017-10-13T23:38:17.438Z,6.87
2017-10-13T23:40:45.316Z,5.70
2017-10-13T23:43:12.867Z,5.50
2017-10-13T23:45:40.306Z,5.53
2017-10-13T23:48:07.758Z,5.60
2017-10-13T23:50:35.963Z,5.40
2017-10-13T23:53:03.413Z,5.47
2017-10-13T23:55:31.290Z,5.33
2017-10-13T23:57:58.750Z,4.97
